createdAt,value
2022-10-17T00:04:29.948Z,1.17
2022-10-17T00:09:33.504Z,0.80
2022-10-17T00:14:37.428Z,0.70
2022-10-17T00:19:42.409Z,0.70
2022-10-17T00:24:45.958Z,1.10
2022-10-17T00:29:50.625Z,0.60
2022-10-17T00:34:55.543Z,0.70
2022-10-17T00:39:59.554Z,0.80
2022-10-17T00:45:08.873Z,0.67
2022-10-17T00:50:15.825Z,0.73
2022-10-17T00:55:24.363Z,0.80
2022-10-17T01:00:27.973Z,0.83
2022-10-17T01:05:33.199Z,1.00
2022-10-17T01:10:44.336Z,0.70
2022-10-17T01:16:00.429Z,0.80
2022-10-17T01:21:23.089Z,1.07
2022-10-17T01:26:38.590Z,1.07
2022-10-17T01:31:48.151Z,0.90
2022-10-17T01:36:57.752Z,0.87
2022-10-17T01:42:11.544Z,0.80
2022-10-17T01:47:20.800Z,0.63
2022-10-17T01:52:28.706Z,0.50
2022-10-17T01:57:37.140Z,0.77
2022-10-17T02:02:44.284Z,0.80
2022-10-17T02:07:47.869Z,0.90
2022-10-17T02:12:57.491Z,0.90
2022-10-17T02:18:14.205Z,0.80
2022-10-17T02:23:24.722Z,0.90
2022-10-17T02:28:34.707Z,0.80
2022-10-17T02:33:44.969Z,0.70
2022-10-17T02:38:49.639Z,0.70
2022-10-17T02:43:57.618Z,0.60
2022-10-17T02:49:11.755Z,0.90
2022-10-17T02:54:20.294Z,0.90
2022-10-17T02:59:27.693Z,0.93
2022-10-17T03:04:32.853Z,0.90
2022-10-17T03:09:36.429Z,0.80
2022-10-17T03:14:40.319Z,1.00
2022-10-17T03:19:45.258Z,0.77
2022-10-17T03:24:48.827Z,1.00
2022-10-17T03:29:52.888Z,0.90
2022-10-17T03:34:58.993Z,0.80
2022-10-17T03:40:02.728Z,1.07
2022-10-17T03:45:07.332Z,0.90
2022-10-17T03:50:13.704Z,0.80
2022-10-17T03:55:19.207Z,0.93
2022-10-17T04:00:22.826Z,0.77
2022-10-17T04:05:33.763Z,1.00
2022-10-17T04:10:37.572Z,0.97
2022-10-17T04:15:41.543Z,1.00
2022-10-17T04:20:46.715Z,0.90
2022-10-17T04:25:50.553Z,1.00
2022-10-17T04:30:58.393Z,0.50
2022-10-17T04:36:13.297Z,0.90
2022-10-17T04:41:18.656Z,0.93
2022-10-17T04:46:23.326Z,0.97
2022-10-17T04:51:28.377Z,0.80
2022-10-17T04:56:57.912Z,0.80
2022-10-17T05:02:02.669Z,0.80
2022-10-17T05:07:08.659Z,0.90
2022-10-17T05:12:33.097Z,1.40
2022-10-17T05:17:36.738Z,0.87
2022-10-17T05:22:42.312Z,1.23
2022-10-17T05:27:47.912Z,1.30
2022-10-17T05:32:54.768Z,0.97
2022-10-17T05:38:01.037Z,0.90
2022-10-17T05:43:07.038Z,1.30
2022-10-17T05:48:10.755Z,0.90
2022-10-17T05:53:15.884Z,0.80
2022-10-17T05:58:45.621Z,1.00
2022-10-17T06:03:57.021Z,1.30
2022-10-17T06:09:03.259Z,1.33
2022-10-17T06:14:10.565Z,1.10
2022-10-17T06:19:16.299Z,1.70
2022-10-17T06:24:21.721Z,1.30
2022-10-17T06:29:27.941Z,1.80
2022-10-17T06:34:31.677Z,2.50
2022-10-17T06:39:38.363Z,2.83
2022-10-17T06:44:46.745Z,1.77
2022-10-17T06:49:59.792Z,1.50
2022-10-17T06:55:25.635Z,1.80
2022-10-17T07:00:55.424Z,1.60
2022-10-17T07:06:02.057Z,1.27
2022-10-17T07:11:14.571Z,1.30
2022-10-17T07:16:18.866Z,1.53
2022-10-17T07:21:27.119Z,1.17
2022-10-17T07:26:32.079Z,1.40
2022-10-17T07:31:36.342Z,1.50
2022-10-17T07:36:40.134Z,1.90
2022-10-17T07:41:46.053Z,1.30
2022-10-17T07:46:49.771Z,1.20
2022-10-17T07:51:54.668Z,1.43
2022-10-17T07:56:59.793Z,1.50
2022-10-17T08:02:03.286Z,1.17
2022-10-17T08:07:19.663Z,1.70
2022-10-17T08:12:26.144Z,1.30
2022-10-17T08:17:29.870Z,1.20
2022-10-17T08:22:33.545Z,1.00
2022-10-17T08:27:38.491Z,1.23
2022-10-17T08:32:42.241Z,1.20
2022-10-17T08:37:45.736Z,1.20
2022-10-17T08:43:27.655Z,1.40
2022-10-17T08:48:42.608Z,1.30
2022-10-17T08:53:53.333Z,1.20
2022-10-17T08:58:56.847Z,1.20
2022-10-17T09:04:19.970Z,1.50
2022-10-17T09:09:35.977Z,1.20
2022-10-17T09:14:54.913Z,1.30
2022-10-17T09:20:04.369Z,1.30
2022-10-17T09:25:14.115Z,0.93
2022-10-17T09:30:44.550Z,1.57
2022-10-17T09:35:52.041Z,1.43
2022-10-17T09:40:58.408Z,1.10
2022-10-17T09:46:08.653Z,1.10
2022-10-17T09:51:25.558Z,1.20
2022-10-17T09:56:29.852Z,1.20
2022-10-17T10:01:34.794Z,1.10
2022-10-17T10:06:40.092Z,1.43
2022-10-17T10:11:49.300Z,1.30
2022-10-17T10:16:54.597Z,1.03
2022-10-17T10:22:01.733Z,1.00
2022-10-17T10:27:05.970Z,1.20
2022-10-17T10:32:12.306Z,1.40
2022-10-17T10:37:23.519Z,1.20
2022-10-17T10:42:30.045Z,1.37
2022-10-17T10:47:34.465Z,1.20
2022-10-17T10:52:44.734Z,1.50
2022-10-17T10:57:50.266Z,1.03
2022-10-17T11:03:01.860Z,0.97
2022-10-17T11:08:13.313Z,1.07
2022-10-17T11:13:20.442Z,0.90
2022-10-17T11:18:29.264Z,0.97
2022-10-17T11:23:45.850Z,1.00
2022-10-17T11:28:49.486Z,0.90
2022-10-17T11:33:58.426Z,1.20
2022-10-17T11:39:06.553Z,1.17
2022-10-17T11:44:18.985Z,1.00
2022-10-17T11:54:42.085Z,0.97
2022-10-17T12:00:07.622Z,1.00
2022-10-17T12:05:23.663Z,1.23
2022-10-17T12:10:38.792Z,0.93
2022-10-17T12:15:46.477Z,1.10
2022-10-17T12:20:58.051Z,1.10
2022-10-17T12:26:05.606Z,1.13
2022-10-17T12:31:12.964Z,0.90
2022-10-17T12:36:43.008Z,0.90
2022-10-17T12:41:56.741Z,0.90
2022-10-17T12:47:30.506Z,0.70
2022-10-17T12:53:02.263Z,0.90
2022-10-17T12:58:13.732Z,0.70
2022-10-17T13:03:19.450Z,0.60
2022-10-17T13:08:25.444Z,0.70
2022-10-17T13:13:39.061Z,0.67
2022-10-17T13:18:42.824Z,0.63
2022-10-17T13:23:47.643Z,0.63
2022-10-17T13:29:05.555Z,1.27
2022-10-17T13:34:18.279Z,1.00
2022-10-17T13:39:38.188Z,0.60
2022-10-17T13:44:43.735Z,0.60
2022-10-17T13:49:49.512Z,0.70
2022-10-17T13:54:55.972Z,0.70
2022-10-17T14:00:08.583Z,0.73
2022-10-17T14:05:20.408Z,0.70
2022-10-17T14:10:26.210Z,0.70
2022-10-17T14:15:33.298Z,0.60
2022-10-17T14:26:09.095Z,0.63
2022-10-17T14:31:27.473Z,0.67
2022-10-17T14:36:35.279Z,0.67
2022-10-17T14:41:44.508Z,0.53
2022-10-17T14:46:53.929Z,0.50
2022-10-17T14:52:28.600Z,0.60
2022-10-17T14:57:44.200Z,0.57
2022-10-17T15:02:50.200Z,0.50
2022-10-17T15:07:54.693Z,0.50
2022-10-17T15:13:16.424Z,0.60
2022-10-17T15:18:25.057Z,0.60
2022-10-17T15:23:28.524Z,0.53
2022-10-17T15:28:32.079Z,0.60
2022-10-17T15:33:37.056Z,0.60
2022-10-17T15:38:40.563Z,0.60
2022-10-17T15:43:44.126Z,0.60
2022-10-17T15:48:49.105Z,0.50
2022-10-17T15:53:52.610Z,0.60
2022-10-17T15:58:56.354Z,0.70
2022-10-17T16:04:01.415Z,0.50
2022-10-17T16:09:05.095Z,0.50
2022-10-17T16:14:12.654Z,0.50
2022-10-17T16:19:17.618Z,0.60
2022-10-17T16:24:21.111Z,0.53
2022-10-17T16:29:24.692Z,0.50
2022-10-17T16:34:30.789Z,0.50
2022-10-17T16:39:34.271Z,0.40
2022-10-17T16:44:38.167Z,0.60
2022-10-17T16:49:45.266Z,0.50
2022-10-17T16:54:49.070Z,0.90
2022-10-17T16:59:52.645Z,0.70
2022-10-17T17:04:57.570Z,0.73
2022-10-17T17:10:01.081Z,0.70
2022-10-17T17:15:05.503Z,0.63
2022-10-17T17:20:11.198Z,0.67
2022-10-17T17:25:14.833Z,0.63
2022-10-17T17:30:18.596Z,0.70
2022-10-17T17:35:23.477Z,0.60
2022-10-17T17:40:27.046Z,0.73
2022-10-17T17:45:30.538Z,0.77
2022-10-17T17:50:37.516Z,0.63
2022-10-17T17:55:41.185Z,0.80
2022-10-17T18:00:44.717Z,0.70
2022-10-17T18:05:49.689Z,0.80
2022-10-17T18:10:54.470Z,0.63
2022-10-17T18:15:59.565Z,0.50
2022-10-17T18:21:04.455Z,0.70
2022-10-17T18:26:08.511Z,0.50
2022-10-17T18:31:15.188Z,0.50
2022-10-17T18:36:20.161Z,0.50
2022-10-17T18:41:26.235Z,0.60
2022-10-17T18:46:32.526Z,0.40
2022-10-17T18:51:37.892Z,0.40
2022-10-17T18:56:41.694Z,0.70
2022-10-17T19:01:45.558Z,0.50
2022-10-17T19:06:50.469Z,0.43
2022-10-17T19:11:54.005Z,0.50
2022-10-17T19:16:59.591Z,0.53
2022-10-17T19:22:05.579Z,0.50
2022-10-17T19:27:09.158Z,0.50
2022-10-17T19:32:16.705Z,0.50
2022-10-17T19:37:24.385Z,0.50
2022-10-17T19:42:28.380Z,0.40
2022-10-17T19:47:32.091Z,0.40
2022-10-17T19:52:37.079Z,0.50
2022-10-17T19:57:40.581Z,0.53
2022-10-17T20:02:44.256Z,0.67
2022-10-17T20:07:49.422Z,0.40
2022-10-17T20:12:52.942Z,0.50
2022-10-17T20:17:56.724Z,0.70
2022-10-17T20:23:01.788Z,0.60
2022-10-17T20:28:05.423Z,0.53
2022-10-17T20:33:08.893Z,0.50
2022-10-17T20:38:14.074Z,0.50
2022-10-17T20:43:17.573Z,0.60
2022-10-17T20:48:21.073Z,0.50
2022-10-17T20:53:36.425Z,0.50
2022-10-17T20:58:40.530Z,0.50
2022-10-17T21:03:46.490Z,0.53
2022-10-17T21:08:54.125Z,0.43
2022-10-17T21:13:59.555Z,0.40
2022-10-17T21:19:03.658Z,0.50
2022-10-17T21:24:12.453Z,0.40
2022-10-17T21:29:16.273Z,0.40
2022-10-17T21:34:21.770Z,0.40
2022-10-17T21:39:26.814Z,0.37
2022-10-17T21:44:30.355Z,0.30
2022-10-17T21:49:33.989Z,0.37
2022-10-17T21:54:38.864Z,0.40
2022-10-17T21:59:42.340Z,0.40
2022-10-17T22:04:45.845Z,0.40
2022-10-17T22:09:50.725Z,0.50
2022-10-17T22:14:54.204Z,0.30
2022-10-17T22:19:57.770Z,0.50
2022-10-17T22:25:02.635Z,0.40
2022-10-17T22:30:07.418Z,0.37
2022-10-17T22:35:11.116Z,0.40
2022-10-17T22:40:16.373Z,0.50
2022-10-17T22:45:19.835Z,0.50
2022-10-17T22:50:23.912Z,0.60
2022-10-17T22:55:28.764Z,0.57
2022-10-17T23:00:32.658Z,0.47
2022-10-17T23:05:36.113Z,0.50
2022-10-17T23:10:41.399Z,0.80
2022-10-17T23:15:44.925Z,0.50
2022-10-17T23:20:48.883Z,0.70
2022-10-17T23:25:53.717Z,0.67
2022-10-17T23:30:57.225Z,0.53
2022-10-17T23:36:03.997Z,0.70
2022-10-17T23:41:09.536Z,0.60
2022-10-17T23:46:13.084Z,0.53
2022-10-17T23:51:16.618Z,0.60
2022-10-17T23:56:21.550Z,0.70
